Time;durP1;ratioP1;P1;durP2;ratioP2;P2;SDS_P1;SDS_P2;PMS_P1;PMS_P2;Temp;Humidity;BMP_temperature;BMP_pressure;BME280_temperature;BME280_humidity;BME280_pressure;Samples;Min_cycle;Max_cycle;Signal;HPM_P1;HPM_P2
2022/11/14 00:00:01;;;;;;;42.03;21.65;;;7.00;99.90;;;;;;6140244;23;20327;-88
2022/11/14 00:02:27;;;;;;;41.90;21.73;;;7.10;99.90;;;;;;6138514;23;20009;-88
2022/11/14 00:04:53;;;;;;;40.22;20.90;;;7.00;99.90;;;;;;6164556;23;20481;-87
2022/11/14 00:07:19;;;;;;;35.65;20.77;;;7.10;99.90;;;;;;6140382;23;20188;-88
2022/11/14 00:09:44;;;;;;;38.92;21.88;;;7.00;99.90;;;;;;6164887;23;20179;-88
2022/11/14 00:12:11;;;;;;;43.53;22.30;;;7.00;99.90;;;;;;6140503;23;20017;-86
2022/11/14 00:14:37;;;;;;;37.38;20.73;;;7.10;99.90;;;;;;6140871;23;20125;-88
2022/11/14 00:17:04;;;;;;;40.80;22.67;;;7.10;99.90;;;;;;6139059;22;20449;-88
2022/11/14 00:19:30;;;;;;;41.50;22.85;;;7.20;99.90;;;;;;6139562;23;20128;-88
2022/11/14 00:21:56;;;;;;;38.65;21.95;;;7.20;99.90;;;;;;6165024;23;20067;-88
2022/11/14 00:24:22;;;;;;;39.80;23.08;;;7.20;99.90;;;;;;6139407;23;20344;-88
2022/11/14 00:26:51;;;;;;;40.78;22.23;;;7.20;99.90;;;;;;6139750;23;20098;-89
2022/11/14 00:29:16;;;;;;;41.88;21.92;;;7.20;99.90;;;;;;6139872;23;20025;-89
2022/11/14 00:31:42;;;;;;;40.90;22.52;;;7.10;99.90;;;;;;6138918;23;20420;-87
2022/11/14 00:34:08;;;;;;;45.30;23.00;;;7.20;99.90;;;;;;6164229;23;20099;-88
2022/11/14 00:36:34;;;;;;;41.10;21.60;;;7.20;99.90;;;;;;6138434;23;20013;-88
2022/11/14 00:38:59;;;;;;;42.35;23.83;;;7.20;99.90;;;;;;6139082;23;20081;-88
2022/11/14 00:41:25;;;;;;;40.08;22.00;;;7.30;99.90;;;;;;6140067;23;20013;-87
2022/11/14 00:43:51;;;;;;;41.85;24.35;;;7.20;99.90;;;;;;6139251;23;20017;-87
2022/11/14 00:46:16;;;;;;;44.92;24.48;;;7.20;99.90;;;;;;6139954;23;20009;-88
2022/11/14 00:48:43;;;;;;;45.30;24.42;;;7.30;99.90;;;;;;6138393;23;20450;-88
2022/11/14 00:51:08;;;;;;;46.53;24.02;;;7.20;99.90;;;;;;6140138;23;20013;-88
2022/11/14 00:53:34;;;;;;;43.45;24.00;;;7.20;99.90;;;;;;6139894;23;20087;-89
2022/11/14 00:56:00;;;;;;;42.05;25.20;;;7.20;99.90;;;;;;6139514;23;20023;-87
2022/11/14 00:58:26;;;;;;;41.75;24.48;;;7.20;99.90;;;;;;6138769;23;20032;-89
2022/11/14 01:00:52;;;;;;;45.22;25.13;;;7.20;99.90;;;;;;6139990;23;20005;-88
2022/11/14 01:03:17;;;;;;;45.63;26.42;;;7.20;99.90;;;;;;6138868;23;20099;-89
2022/11/14 01:05:48;;;;;;;48.42;27.42;;;7.20;99.90;;;;;;6164969;22;20017;-88
2022/11/14 01:08:15;;;;;;;42.97;25.48;;;7.20;99.90;;;;;;6164554;23;20021;-88
2022/11/14 01:10:42;;;;;;;44.72;26.88;;;7.20;99.90;;;;;;6140387;23;20017;-88
2022/11/14 01:13:09;;;;;;;46.15;26.08;;;7.20;99.90;;;;;;6140088;23;20017;-87
2022/11/14 01:15:42;;;;;;;43.63;25.80;;;7.20;99.90;;;;;;6140473;23;20082;-88
2022/11/14 01:18:11;;;;;;;49.55;27.73;;;7.20;99.90;;;;;;6137573;23;20120;-87
2022/11/14 01:20:41;;;;;;;45.30;25.63;;;7.30;99.90;;;;;;6139204;23;20052;-87
2022/11/14 01:23:12;;;;;;;49.08;27.42;;;7.20;99.90;;;;;;6139399;23;20020;-88
2022/11/14 01:25:39;;;;;;;47.58;27.58;;;7.20;99.90;;;;;;6139976;23;20013;-88
2022/11/14 01:28:11;;;;;;;49.40;29.15;;;7.20;99.90;;;;;;6139126;23;20013;-87
2022/11/14 01:30:37;;;;;;;56.22;32.33;;;7.20;99.90;;;;;;6164777;23;20108;-87
2022/11/14 01:33:03;;;;;;;55.10;31.27;;;7.10;99.90;;;;;;6137096;23;20060;-88
2022/11/14 01:35:30;;;;;;;58.90;34.22;;;7.10;99.90;;;;;;6138806;23;20059;-88
2022/11/14 01:37:56;;;;;;;58.88;33.90;;;7.10;99.90;;;;;;6139650;23;20017;-88
2022/11/14 01:40:22;;;;;;;60.05;35.40;;;7.10;99.90;;;;;;6138868;23;20439;-88
2022/11/14 01:43:29;;;;;;;63.08;35.75;;;7.00;99.90;;;;;;6139583;23;20043;-88
2022/11/14 01:46:12;;;;;;;65.88;35.38;;;7.00;99.90;;;;;;6198129;23;20405;-88
2022/11/14 01:49:07;;;;;;;60.75;34.95;;;7.00;99.90;;;;;;6169349;23;20523;-88
2022/11/14 01:51:35;;;;;;;66.78;38.40;;;7.00;99.90;;;;;;6164052;23;20573;-88
2022/11/14 01:54:04;;;;;;;64.13;36.72;;;6.90;99.90;;;;;;6139250;23;20021;-88
2022/11/14 01:56:35;;;;;;;61.58;35.42;;;6.90;99.90;;;;;;6139583;23;20030;-87
2022/11/14 01:59:08;;;;;;;63.15;36.05;;;7.00;99.90;;;;;;6139229;23;20024;-87
2022/11/14 02:01:36;;;;;;;70.18;37.38;;;6.90;99.90;;;;;;6139901;23;20017;-88
2022/11/14 02:04:06;;;;;;;66.07;36.55;;;6.90;99.90;;;;;;6138431;23;20013;-86
2022/11/14 02:06:35;;;;;;;67.70;36.58;;;6.90;99.90;;;;;;6139429;23;20020;-88
2022/11/14 02:09:05;;;;;;;71.53;39.38;;;6.90;99.90;;;;;;6140398;23;20021;-87
2022/11/14 02:11:34;;;;;;;66.32;36.83;;;6.90;99.90;;;;;;6139749;23;20352;-88
2022/11/14 02:14:03;;;;;;;66.43;36.72;;;6.90;99.90;;;;;;6163490;23;20025;-88
2022/11/14 02:16:29;;;;;;;72.85;37.25;;;6.90;99.90;;;;;;6140454;23;20017;-90
2022/11/14 02:18:54;;;;;;;67.38;37.85;;;6.90;99.90;;;;;;6138893;23;20020;-87
2022/11/14 02:21:20;;;;;;;67.10;38.10;;;7.00;99.90;;;;;;6164943;23;20052;-88
2022/11/14 02:23:46;;;;;;;67.57;36.22;;;7.00;99.90;;;;;;6139448;23;20017;-88
2022/11/14 02:26:12;;;;;;;66.47;36.70;;;6.90;99.90;;;;;;6141532;23;20468;-88
2022/11/14 02:28:37;;;;;;;72.25;37.50;;;6.90;99.90;;;;;;6139643;23;20033;-89
2022/11/14 02:31:03;;;;;;;68.13;37.60;;;6.90;99.90;;;;;;6164525;23;20403;-87
2022/11/14 02:33:29;;;;;;;64.10;35.53;;;6.90;99.90;;;;;;6138181;22;20020;-88
2022/11/14 02:35:54;;;;;;;70.78;37.55;;;6.90;99.90;;;;;;6164262;23;20017;-88
2022/11/14 02:38:20;;;;;;;72.13;37.42;;;6.90;99.90;;;;;;6139219;23;20354;-89
2022/11/14 02:40:45;;;;;;;70.03;37.63;;;6.90;99.90;;;;;;6140014;23;20149;-88
2022/11/14 02:43:11;;;;;;;70.53;36.63;;;7.00;99.90;;;;;;6164955;23;20058;-87
2022/11/14 02:45:37;;;;;;;73.90;37.83;;;7.00;99.90;;;;;;6140934;23;20374;-89
2022/11/14 02:48:03;;;;;;;75.28;37.60;;;7.00;99.90;;;;;;6138454;23;20017;-88
2022/11/14 02:50:28;;;;;;;69.43;37.08;;;7.00;99.90;;;;;;6139686;23;20016;-89
2022/11/14 02:52:55;;;;;;;69.32;36.90;;;7.00;99.90;;;;;;6140435;23;20017;-89
2022/11/14 02:55:24;;;;;;;64.90;36.35;;;7.10;99.90;;;;;;6140026;23;20291;-88
2022/11/14 02:57:49;;;;;;;71.38;35.42;;;7.10;99.90;;;;;;6140050;23;20116;-87
2022/11/14 03:00:15;;;;;;;71.93;37.85;;;7.00;99.90;;;;;;6140641;23;20351;-88
2022/11/14 03:02:41;;;;;;;64.05;36.50;;;7.10;99.90;;;;;;6138406;23;20009;-87
2022/11/14 03:05:07;;;;;;;66.95;36.75;;;7.10;99.90;;;;;;6164943;23;20327;-88
2022/11/14 03:07:32;;;;;;;66.65;36.38;;;7.10;99.90;;;;;;6140585;23;20013;-89
2022/11/14 03:09:58;;;;;;;71.93;38.42;;;7.00;99.90;;;;;;6140077;23;20066;-88
2022/11/14 03:12:23;;;;;;;68.88;36.67;;;7.00;99.90;;;;;;6139099;23;20017;-87
2022/11/14 03:14:49;;;;;;;69.03;36.65;;;7.00;99.90;;;;;;6140057;23;20021;-88
2022/11/14 03:17:15;;;;;;;66.50;36.88;;;7.10;99.90;;;;;;6163608;23;20404;-87
2022/11/14 03:19:40;;;;;;;68.85;35.67;;;7.00;99.90;;;;;;6162715;23;20024;-88
2022/11/14 03:22:06;;;;;;;63.63;35.85;;;7.00;99.90;;;;;;6142005;23;20229;-88
2022/11/14 03:24:32;;;;;;;70.53;36.00;;;7.10;99.90;;;;;;6164431;23;20013;-88
2022/11/14 03:26:58;;;;;;;72.75;37.22;;;7.00;99.90;;;;;;6140183;23;20217;-88
2022/11/14 03:29:24;;;;;;;66.38;35.67;;;7.10;99.90;;;;;;6140489;23;20502;-88
2022/11/14 03:31:49;;;;;;;69.22;38.55;;;7.00;99.90;;;;;;6138901;23;20013;-87
2022/11/14 03:34:15;;;;;;;63.65;35.17;;;7.00;99.90;;;;;;6163126;23;20511;-88
2022/11/14 03:36:43;;;;;;;64.65;36.50;;;7.00;99.90;;;;;;6140060;23;20433;-88
2022/11/14 03:39:09;;;;;;;61.20;35.30;;;7.00;99.90;;;;;;6139548;23;20065;-88
2022/11/14 03:41:35;;;;;;;67.47;36.10;;;7.00;99.90;;;;;;6139903;23;20016;-90
2022/11/14 03:44:00;;;;;;;72.90;36.58;;;7.00;99.90;;;;;;6164693;23;20669;-87
2022/11/14 03:46:26;;;;;;;68.15;36.22;;;7.00;99.90;;;;;;6165946;23;20146;-87
2022/11/14 03:48:51;;;;;;;68.97;36.40;;;7.00;99.90;;;;;;6138920;23;20088;-89
2022/11/14 03:51:17;;;;;;;66.82;36.17;;;7.00;99.90;;;;;;6140438;23;20016;-88
2022/11/14 03:53:43;;;;;;;66.22;36.85;;;7.00;99.90;;;;;;6138815;23;20086;-88
2022/11/14 03:56:11;;;;;;;64.63;35.63;;;6.90;99.90;;;;;;6139451;23;20342;-86
2022/11/14 03:58:37;;;;;;;64.57;35.78;;;7.00;99.90;;;;;;6139897;23;20346;-88
2022/11/14 04:01:02;;;;;;;69.03;36.85;;;7.00;99.90;;;;;;6140814;23;20250;-88
2022/11/14 04:03:28;;;;;;;67.38;36.90;;;7.00;99.90;;;;;;6138344;23;20342;-89
2022/11/14 04:05:54;;;;;;;69.43;36.53;;;7.00;99.90;;;;;;6140825;23;20088;-88
2022/11/14 04:08:20;;;;;;;62.63;37.17;;;7.00;99.90;;;;;;6139397;23;20021;-88
2022/11/14 04:10:49;;;;;;;65.72;37.38;;;7.00;99.90;;;;;;6140599;23;20357;-88
2022/11/14 04:13:14;;;;;;;66.55;37.28;;;7.00;99.90;;;;;;6138796;23;20095;-88
2022/11/14 04:15:40;;;;;;;68.35;36.85;;;7.00;99.90;;;;;;6140716;23;20442;-87
2022/11/14 04:18:06;;;;;;;63.25;36.50;;;7.00;99.90;;;;;;6163841;22;20097;-88
2022/11/14 04:20:31;;;;;;;63.83;36.53;;;7.00;99.90;;;;;;6139571;23;20085;-87
2022/11/14 04:22:57;;;;;;;70.57;36.55;;;7.00;99.90;;;;;;6139316;23;20409;-87
2022/11/14 04:25:23;;;;;;;66.75;35.80;;;7.00;99.90;;;;;;6140539;23;20533;-87
2022/11/14 04:27:48;;;;;;;61.45;36.25;;;7.00;99.90;;;;;;6139290;23;20486;-88
2022/11/14 04:30:14;;;;;;;65.03;35.78;;;7.00;99.90;;;;;;6140250;23;20017;-87
2022/11/14 04:32:40;;;;;;;61.95;34.55;;;7.00;99.90;;;;;;6161907;23;20323;-88
2022/11/14 04:35:08;;;;;;;60.55;35.03;;;7.00;99.90;;;;;;6140060;23;20623;-86
2022/11/14 04:37:34;;;;;;;58.63;34.67;;;7.00;99.90;;;;;;6139467;23;20078;-88
2022/11/14 04:40:01;;;;;;;64.70;36.10;;;7.00;99.90;;;;;;6138658;23;20309;-89
2022/11/14 04:42:27;;;;;;;65.13;37.70;;;7.00;99.90;;;;;;6139377;23;20017;-88
2022/11/14 04:44:52;;;;;;;60.00;36.00;;;6.90;99.90;;;;;;6164319;23;20066;-87
2022/11/14 04:47:18;;;;;;;61.10;36.20;;;7.00;99.90;;;;;;6163331;23;20252;-88
2022/11/14 04:49:44;;;;;;;60.25;35.65;;;6.90;99.90;;;;;;6139310;23;20016;-88
2022/11/14 04:52:09;;;;;;;60.78;36.00;;;7.00;99.90;;;;;;6139771;23;20033;-88
2022/11/14 04:54:35;;;;;;;60.65;35.30;;;6.90;99.90;;;;;;6139728;23;20032;-87
2022/11/14 04:57:00;;;;;;;64.13;35.95;;;7.00;99.90;;;;;;6139874;23;20401;-88
2022/11/14 04:59:26;;;;;;;62.42;35.78;;;6.90;99.90;;;;;;6139967;23;20459;-87
2022/11/14 05:01:52;;;;;;;62.83;36.47;;;6.90;99.90;;;;;;6164722;23;20457;-86
2022/11/14 05:04:18;;;;;;;58.75;34.38;;;7.00;99.90;;;;;;6137358;23;20017;-87
2022/11/14 05:06:44;;;;;;;56.83;33.17;;;6.90;99.90;;;;;;6140350;23;20019;-88
2022/11/14 05:09:09;;;;;;;62.10;35.13;;;6.90;99.90;;;;;;6139064;23;20249;-88
2022/11/14 05:11:35;;;;;;;60.95;36.45;;;6.90;99.90;;;;;;6140006;23;20020;-88
2022/11/14 05:14:03;;;;;;;59.53;35.25;;;6.80;99.90;;;;;;6139414;23;20028;-88
2022/11/14 05:16:29;;;;;;;62.00;36.25;;;6.70;99.90;;;;;;6163321;23;20028;-88
2022/11/14 05:18:54;;;;;;;58.97;33.90;;;6.70;99.90;;;;;;6138874;23;20012;-87
2022/11/14 05:21:20;;;;;;;58.83;34.65;;;6.70;99.90;;;;;;6139220;23;20028;-87
2022/11/14 05:23:46;;;;;;;64.10;36.45;;;6.70;99.90;;;;;;6139154;23;20708;-87
2022/11/14 05:26:14;;;;;;;62.78;35.50;;;6.70;99.90;;;;;;6140366;23;20031;-86
2022/11/14 05:28:40;;;;;;;61.40;34.67;;;6.70;99.90;;;;;;6164571;23;20244;-89
2022/11/14 05:31:12;;;;;;;63.45;35.28;;;6.70;99.90;;;;;;6141991;23;20403;-88
2022/11/14 05:33:38;;;;;;;62.75;34.92;;;6.80;99.90;;;;;;6137426;23;20013;-88
2022/11/14 05:36:06;;;;;;;57.35;34.63;;;6.70;99.90;;;;;;6164501;22;20013;-88
2022/11/14 05:38:32;;;;;;;68.50;36.30;;;6.70;99.90;;;;;;6140421;23;20048;-87
2022/11/14 05:40:58;;;;;;;63.28;34.70;;;6.70;99.90;;;;;;6164480;23;20023;-87
2022/11/14 05:43:24;;;;;;;62.22;36.15;;;6.80;99.90;;;;;;6140449;23;20066;-88
2022/11/14 05:45:50;;;;;;;67.32;38.28;;;6.70;99.90;;;;;;6140018;23;20319;-87
2022/11/14 05:48:16;;;;;;;65.93;37.15;;;6.70;99.90;;;;;;6138083;23;20027;-88
2022/11/14 05:50:42;;;;;;;64.15;34.97;;;6.80;99.90;;;;;;6139132;23;20016;-87
2022/11/14 05:53:08;;;;;;;59.65;36.05;;;6.70;99.90;;;;;;6163983;23;20096;-88
2022/11/14 05:55:33;;;;;;;69.55;36.80;;;6.70;99.90;;;;;;6140544;23;20587;-88
2022/11/14 05:57:59;;;;;;;62.20;34.78;;;6.70;99.90;;;;;;6138807;23;20833;-87
2022/11/14 06:00:26;;;;;;;60.28;35.60;;;6.70;99.90;;;;;;6113930;23;20009;-88
2022/11/14 06:02:53;;;;;;;63.55;35.58;;;6.70;99.90;;;;;;6114730;23;20024;-88
2022/11/14 06:05:20;;;;;;;63.80;35.70;;;6.70;99.90;;;;;;6113650;23;20009;-88
2022/11/14 06:07:46;;;;;;;59.63;29.35;;;6.70;99.90;;;;;;6115182;23;20092;-87
2022/11/14 06:10:12;;;;;;;60.03;30.85;;;6.70;99.90;;;;;;6114618;23;20379;-88
2022/11/14 06:12:41;;;;;;;58.38;30.92;;;6.60;99.90;;;;;;6137681;23;20021;-88
2022/11/14 06:15:07;;;;;;;58.95;31.10;;;6.70;99.90;;;;;;6115326;23;20017;-88
2022/11/14 06:17:32;;;;;;;64.25;31.52;;;6.70;99.90;;;;;;6112775;23;20354;-87
2022/11/14 06:19:58;;;;;;;61.40;31.77;;;6.60;99.90;;;;;;6115314;23;20114;-88
2022/11/14 06:22:24;;;;;;;56.10;30.67;;;6.70;99.90;;;;;;6116294;23;20077;-88
2022/11/14 06:24:49;;;;;;;57.63;30.45;;;6.70;99.90;;;;;;6113655;23;20052;-88
2022/11/14 06:27:15;;;;;;;59.55;31.95;;;6.70;99.90;;;;;;6115595;23;20024;-88
2022/11/14 06:29:40;;;;;;;59.20;31.55;;;6.70;99.90;;;;;;6138659;23;20017;-88
2022/11/14 06:32:06;;;;;;;60.17;31.08;;;6.70;99.90;;;;;;6112963;23;20032;-88
2022/11/14 06:34:32;;;;;;;56.53;29.45;;;6.70;99.90;;;;;;6113352;23;20017;-88
2022/11/14 06:36:57;;;;;;;62.67;32.53;;;6.70;99.90;;;;;;6115379;23;20099;-89
2022/11/14 06:39:23;;;;;;;64.28;32.92;;;6.60;99.90;;;;;;6114931;23;20347;-88
2022/11/14 06:41:48;;;;;;;65.78;32.35;;;6.60;99.90;;;;;;6114413;23;20094;-88
2022/11/14 06:44:14;;;;;;;64.00;34.30;;;6.60;99.90;;;;;;6114979;23;20013;-88
2022/11/14 06:46:40;;;;;;;62.47;32.45;;;6.60;99.90;;;;;;6138845;23;20052;-88
2022/11/14 06:49:05;;;;;;;59.78;32.05;;;6.60;99.90;;;;;;6138266;23;20033;-89
2022/11/14 06:51:31;;;;;;;64.32;31.58;;;6.60;99.90;;;;;;6139229;23;20256;-88
2022/11/14 06:53:57;;;;;;;63.00;32.08;;;6.50;99.90;;;;;;6118929;23;20033;-88
2022/11/14 06:56:23;;;;;;;63.92;33.28;;;6.40;99.90;;;;;;6164216;23;20452;-88
2022/11/14 06:58:52;;;;;;;66.00;32.35;;;6.40;99.90;;;;;;6140001;23;20085;-88
2022/11/14 07:01:21;;;;;;;61.38;32.28;;;6.40;99.90;;;;;;6140438;23;20017;-88
2022/11/14 07:03:47;;;;;;;61.25;31.13;;;6.30;99.90;;;;;;6138809;23;20013;-87
2022/11/14 07:06:19;;;;;;;67.18;32.47;;;6.40;99.90;;;;;;6139718;23;20021;-87
2022/11/14 07:08:45;;;;;;;62.15;31.23;;;6.30;99.90;;;;;;6140444;23;20056;-86
2022/11/14 07:11:26;;;;;;;67.22;31.95;;;6.20;99.90;;;;;;6141514;23;20028;-87
2022/11/14 07:13:54;;;;;;;65.82;31.58;;;6.30;99.90;;;;;;6139550;23;20118;-87
2022/11/14 07:16:23;;;;;;;65.32;32.08;;;6.20;99.90;;;;;;6140246;23;20071;-88
2022/11/14 07:18:49;;;;;;;67.88;33.40;;;6.20;99.90;;;;;;6138008;23;20153;-88
2022/11/14 07:21:15;;;;;;;70.03;33.92;;;6.30;99.90;;;;;;6164740;23;20047;-88
2022/11/14 07:23:40;;;;;;;65.10;32.33;;;6.20;99.90;;;;;;6141105;22;20072;-89
2022/11/14 07:26:08;;;;;;;62.53;30.85;;;6.30;99.90;;;;;;6140655;23;20013;-88
2022/11/14 07:28:36;;;;;;;65.35;32.85;;;6.30;99.90;;;;;;6141470;23;20066;-88
2022/11/14 07:31:03;;;;;;;62.45;30.50;;;6.30;99.90;;;;;;6140806;23;20074;-87
2022/11/14 07:33:31;;;;;;;62.83;29.83;;;6.20;99.90;;;;;;6138629;23;20017;-88
2022/11/14 07:35:57;;;;;;;60.03;31.27;;;6.30;99.90;;;;;;6141226;23;20027;-87
2022/11/14 07:38:23;;;;;;;62.22;31.75;;;6.30;99.90;;;;;;6165082;23;20084;-89
2022/11/14 07:41:00;;;;;;;58.78;30.85;;;6.20;99.90;;;;;;6141300;23;20120;-88
2022/11/14 07:43:26;;;;;;;57.72;31.33;;;6.30;99.90;;;;;;6140125;23;20390;-88
2022/11/14 07:45:52;;;;;;;65.18;31.70;;;6.20;99.90;;;;;;6166542;23;20053;-88
2022/11/14 07:48:20;;;;;;;63.58;31.50;;;6.30;99.90;;;;;;6139871;23;20028;-88
2022/11/14 07:50:46;;;;;;;61.60;31.67;;;6.30;99.90;;;;;;6165883;23;20077;-88
2022/11/14 07:53:14;;;;;;;68.80;31.77;;;6.40;99.90;;;;;;6139209;23;20492;-88
2022/11/14 07:55:40;;;;;;;61.40;31.42;;;6.40;99.90;;;;;;6115625;23;20103;-89
2022/11/14 07:58:05;;;;;;;64.38;32.35;;;6.40;99.90;;;;;;6115696;23;20465;-87
2022/11/14 08:00:31;;;;;;;71.13;32.72;;;6.40;99.90;;;;;;6116709;23;20040;-88
2022/11/14 08:02:56;;;;;;;63.47;31.60;;;6.40;99.90;;;;;;6115829;23;20033;-88
2022/11/14 08:05:22;;;;;;;65.35;33.08;;;6.50;99.90;;;;;;6115463;23;20173;-88
2022/11/14 08:07:51;;;;;;;67.05;32.70;;;6.60;99.90;;;;;;6117230;23;20021;-89
2022/11/14 08:10:18;;;;;;;70.18;33.17;;;6.60;99.90;;;;;;6115637;23;20285;-88
2022/11/14 08:12:45;;;;;;;63.03;31.60;;;6.50;99.90;;;;;;6115252;23;20508;-88
2022/11/14 08:15:13;;;;;;;60.97;32.60;;;6.70;99.90;;;;;;6115807;23;20017;-88
2022/11/14 08:17:39;;;;;;;58.95;31.08;;;6.60;99.90;;;;;;6113718;23;20049;-89
2022/11/14 08:20:06;;;;;;;62.30;31.10;;;6.50;99.90;;;;;;6115480;23;20024;-89
2022/11/14 08:22:35;;;;;;;63.08;31.48;;;6.50;99.90;;;;;;6116667;23;20138;-88
2022/11/14 08:25:01;;;;;;;57.72;31.48;;;6.50;99.90;;;;;;6140399;23;20406;-89
2022/11/14 08:27:27;;;;;;;57.25;30.27;;;6.50;99.90;;;;;;6115294;23;20032;-88
2022/11/14 08:29:52;;;;;;;59.97;31.58;;;6.70;99.90;;;;;;6115155;23;20009;-88
2022/11/14 08:32:18;;;;;;;60.08;31.10;;;6.70;99.90;;;;;;6114327;23;20016;-88
2022/11/14 08:34:44;;;;;;;61.88;33.40;;;6.70;99.90;;;;;;6115905;23;20311;-88
2022/11/14 08:37:09;;;;;;;62.72;31.90;;;6.80;99.90;;;;;;6116311;23;20013;-88
2022/11/14 08:39:35;;;;;;;62.20;32.78;;;6.70;99.90;;;;;;6115989;23;20013;-89
2022/11/14 08:42:04;;;;;;;60.13;31.85;;;6.80;99.90;;;;;;6139941;23;20039;-87
2022/11/14 08:44:29;;;;;;;62.75;31.52;;;6.80;99.90;;;;;;6116983;23;20062;-88
2022/11/14 08:46:55;;;;;;;59.97;32.47;;;6.90;99.90;;;;;;6116554;23;20103;-88
2022/11/14 08:49:21;;;;;;;61.40;31.42;;;7.00;99.90;;;;;;6114328;23;20342;-89
2022/11/14 08:51:46;;;;;;;60.88;33.00;;;7.00;99.90;;;;;;6114835;23;20025;-88
2022/11/14 08:54:12;;;;;;;58.88;31.85;;;7.00;99.90;;;;;;6122114;23;20028;-87
2022/11/14 08:56:38;;;;;;;58.78;31.27;;;7.10;99.90;;;;;;6137104;23;20055;-88
2022/11/14 08:59:04;;;;;;;58.63;32.75;;;7.20;99.90;;;;;;6162382;23;20019;-87
2022/11/14 09:01:33;;;;;;;58.60;31.80;;;7.10;99.90;;;;;;6138902;23;20090;-89
2022/11/14 09:03:59;;;;;;;57.13;31.15;;;7.10;99.90;;;;;;6137768;23;20009;-87
2022/11/14 09:06:25;;;;;;;56.63;31.17;;;7.10;99.90;;;;;;6136936;23;20013;-88
2022/11/14 09:08:51;;;;;;;61.42;31.27;;;7.20;99.90;;;;;;6137840;23;20013;-87
2022/11/14 09:11:16;;;;;;;55.92;31.88;;;7.10;99.90;;;;;;6138759;23;20508;-88
2022/11/14 09:13:42;;;;;;;55.60;31.35;;;7.10;99.90;;;;;;6138633;23;20021;-88
2022/11/14 09:16:08;;;;;;;49.55;29.88;;;7.20;99.90;;;;;;6139327;23;20497;-88
2022/11/14 09:18:33;;;;;;;52.45;29.67;;;7.10;99.90;;;;;;6160456;23;20422;-88
2022/11/14 09:21:01;;;;;;;55.03;32.70;;;7.30;99.90;;;;;;6138300;23;20033;-87
2022/11/14 09:23:27;;;;;;;54.47;31.35;;;7.30;99.90;;;;;;6139030;23;20021;-89
2022/11/14 09:25:53;;;;;;;51.15;29.77;;;7.30;99.90;;;;;;6164925;23;20040;-90
2022/11/14 09:28:19;;;;;;;51.88;30.63;;;7.30;99.90;;;;;;6141114;23;20406;-92
2022/11/14 09:30:44;;;;;;;53.08;30.27;;;7.30;99.90;;;;;;6166862;23;20070;-92
2022/11/14 09:33:10;;;;;;;56.78;30.42;;;7.40;99.90;;;;;;6139885;23;20446;-92
2022/11/14 09:35:36;;;;;;;52.65;30.13;;;7.30;99.90;;;;;;6140619;23;20025;-91
2022/11/14 09:38:10;;;;;;;52.92;29.58;;;7.30;99.90;;;;;;6141513;23;20029;-93
2022/11/14 09:40:54;;;;;;;51.90;31.05;;;7.40;99.90;;;;;;6142530;23;20020;-93
2022/11/14 09:43:48;;;;;;;52.73;30.43;;;7.50;99.90;;;;;;6141404;23;20506;-91
2022/11/14 09:46:26;;;;;;;54.30;29.55;;;7.50;99.90;;;;;;6140100;23;20272;-91
2022/11/14 09:48:52;;;;;;;52.83;29.33;;;7.60;99.90;;;;;;6139724;23;20520;-92
2022/11/14 09:51:24;;;;;;;51.45;29.05;;;7.50;99.90;;;;;;6141346;23;20024;-92
2022/11/14 09:54:07;;;;;;;51.40;28.35;;;7.50;99.90;;;;;;6139913;23;20074;-92
2022/11/14 09:56:33;;;;;;;51.28;29.08;;;7.60;99.90;;;;;;6139721;23;20017;-91
2022/11/14 09:58:59;;;;;;;51.70;29.60;;;7.90;99.90;;;;;;6141038;23;20088;-92
2022/11/14 10:01:48;;;;;;;51.90;30.65;;;8.00;99.90;;;;;;6141617;23;20067;-93
2022/11/14 10:04:42;;;;;;;51.22;30.10;;;8.10;99.90;;;;;;6140638;23;20048;-90
2022/11/14 10:07:43;;;;;;;48.40;29.30;;;7.80;99.90;;;;;;6141030;23;20024;-92
2022/11/14 10:10:19;;;;;;;50.63;29.65;;;8.00;99.90;;;;;;6164693;23;20052;-91
2022/11/14 10:13:16;;;;;;;53.05;29.63;;;7.90;99.90;;;;;;6140412;23;20024;-90
2022/11/14 10:15:50;;;;;;;49.78;29.38;;;7.90;99.90;;;;;;6140478;23;20113;-92
2022/11/14 10:18:40;;;;;;;45.83;27.83;;;8.00;99.90;;;;;;6139545;23;20024;-92
2022/11/14 10:21:34;;;;;;;48.65;28.10;;;7.90;99.90;;;;;;6139619;23;20654;-92
2022/11/14 10:24:02;;;;;;;53.92;29.77;;;8.00;99.90;;;;;;6270467;22;20024;-91
2022/11/14 10:26:31;;;;;;;43.75;27.77;;;7.90;99.90;;;;;;6141001;23;20147;-91
2022/11/14 10:29:06;;;;;;;52.05;29.83;;;8.00;99.90;;;;;;6141757;23;20083;-93
2022/11/14 10:32:00;;;;;;;46.83;28.10;;;8.10;99.90;;;;;;6142564;23;20013;-92
2022/11/14 10:34:33;;;;;;;44.92;28.50;;;8.00;99.90;;;;;;6141890;23;20081;-92
2022/11/14 10:37:23;;;;;;;49.63;31.25;;;8.10;99.90;;;;;;6141688;23;20017;-93
2022/11/14 10:39:55;;;;;;;47.33;29.17;;;8.00;99.90;;;;;;6158361;23;20024;-91
2022/11/14 10:42:30;;;;;;;46.42;29.13;;;8.20;99.90;;;;;;6141889;23;20044;-92
2022/11/14 10:45:14;;;;;;;50.33;29.63;;;8.20;99.90;;;;;;6142701;23;20009;-92
2022/11/14 10:47:44;;;;;;;48.60;29.05;;;8.20;99.90;;;;;;6140028;23;20021;-92
2022/11/14 10:50:20;;;;;;;48.97;29.55;;;8.40;99.90;;;;;;6142115;23;20426;-94
2022/11/14 10:52:47;;;;;;;51.72;30.80;;;8.50;99.90;;;;;;6141164;23;20066;-91
2022/11/14 10:55:16;;;;;;;45.08;28.95;;;8.50;99.90;;;;;;6142199;23;20020;-91
2022/11/14 10:57:45;;;;;;;44.67;28.40;;;8.60;99.90;;;;;;6141953;23;20101;-92
2022/11/14 11:00:18;;;;;;;42.15;27.25;;;8.80;99.90;;;;;;6167119;23;20013;-92
2022/11/14 11:02:55;;;;;;;42.45;25.75;;;8.80;99.90;;;;;;6141015;23;20015;-92
2022/11/14 11:05:29;;;;;;;42.58;25.35;;;8.80;99.90;;;;;;6141265;23;20618;-90
2022/11/14 11:13:34;;;;;;;40.35;25.10;;;8.40;99.90;;;;;;6165970;23;20101;-92
2022/11/14 11:16:03;;;;;;;40.60;24.50;;;8.40;99.90;;;;;;6168576;23;20017;-92
2022/11/14 11:18:34;;;;;;;39.17;25.05;;;8.50;99.90;;;;;;6142362;23;20020;-92
2022/11/14 11:21:02;;;;;;;40.40;25.25;;;8.50;99.90;;;;;;6143369;23;20096;-93
2022/11/14 11:23:28;;;;;;;42.70;25.38;;;8.40;99.90;;;;;;6143565;23;20032;-93
2022/11/14 11:26:15;;;;;;;40.65;26.30;;;8.40;99.90;;;;;;6143162;23;20438;-93
2022/11/14 11:28:59;;;;;;;38.97;25.10;;;8.40;99.90;;;;;;6143809;23;20150;-93
2022/11/14 11:31:24;;;;;;;36.97;23.67;;;8.30;99.90;;;;;;6144138;23;20482;-92
2022/11/14 11:33:50;;;;;;;39.30;24.83;;;8.30;99.90;;;;;;6143042;23;20032;-92
2022/11/14 11:36:22;;;;;;;41.47;25.00;;;8.40;99.90;;;;;;6143184;23;20028;-92
2022/11/14 11:38:48;;;;;;;42.88;26.25;;;8.50;99.90;;;;;;6142790;23;20021;-92
2022/11/14 11:41:28;;;;;;;42.70;26.10;;;8.60;99.90;;;;;;6166792;23;20231;-92
2022/11/14 11:43:57;;;;;;;43.90;25.58;;;8.70;99.90;;;;;;6142411;23;20070;-92
2022/11/14 11:46:46;;;;;;;39.83;26.52;;;8.70;99.90;;;;;;6142799;23;20013;-92
2022/11/14 11:49:41;;;;;;;40.53;26.05;;;8.70;99.90;;;;;;6141004;23;20767;-93
2022/11/14 11:52:16;;;;;;;40.83;25.70;;;8.60;99.90;;;;;;6142902;23;20013;-91
2022/11/14 11:54:50;;;;;;;;;;;8.50;99.90;;;;;;6141799;23;20071;-94
2022/11/14 11:57:17;;;;;;;41.67;26.08;;;8.50;99.90;;;;;;6141346;23;20330;-92
2022/11/14 11:59:48;;;;;;;40.95;25.38;;;8.50;99.90;;;;;;6142723;23;20015;-92
2022/11/14 12:02:25;;;;;;;37.28;24.63;;;8.60;99.90;;;;;;6141163;23;20017;-93
2022/11/14 12:04:53;;;;;;;42.45;26.52;;;8.60;99.90;;;;;;6166184;23;20063;-92
2022/11/14 12:07:35;;;;;;;40.55;25.95;;;8.50;99.90;;;;;;6142642;23;20032;-91
2022/11/14 12:10:10;;;;;;;38.72;25.10;;;8.50;99.90;;;;;;6166548;23;20031;-92
2022/11/14 12:12:41;;;;;;;39.80;24.95;;;8.60;99.90;;;;;;6142367;23;20013;-92
2022/11/14 12:15:10;;;;;;;41.60;25.88;;;8.70;99.90;;;;;;6142491;23;20048;-91
2022/11/14 12:17:53;;;;;;;41.53;25.75;;;8.70;99.90;;;;;;6140877;23;20083;-92
2022/11/14 12:20:48;;;;;;;42.05;27.80;;;8.70;99.90;;;;;;6141025;23;20099;-91
2022/11/14 12:23:39;;;;;;;37.45;24.48;;;8.70;99.90;;;;;;6142660;23;20020;-93
2022/11/14 12:26:29;;;;;;;39.72;24.95;;;8.80;99.90;;;;;;6142980;23;20449;-92
2022/11/14 12:28:58;;;;;;;38.55;24.60;;;8.80;99.90;;;;;;6142953;23;20021;-93
2022/11/14 12:31:27;;;;;;;38.60;24.92;;;8.80;99.90;;;;;;6142735;23;20108;-93
2022/11/14 12:34:29;;;;;;;38.47;25.65;;;8.90;99.90;;;;;;6165790;23;20419;-93
2022/11/14 12:36:55;;;;;;;42.85;25.90;;;8.90;99.90;;;;;;6146321;23;20017;-92
2022/11/14 12:39:31;;;;;;;45.15;25.63;;;8.90;99.90;;;;;;6140873;23;20070;-94
2022/11/14 12:42:06;;;;;;;41.25;26.27;;;8.90;99.90;;;;;;6141571;23;20247;-93
2022/11/14 12:44:34;;;;;;;37.20;23.98;;;8.90;99.90;;;;;;6140867;23;20009;-93
2022/11/14 12:47:03;;;;;;;39.17;25.08;;;8.90;99.90;;;;;;6139471;23;20096;-93
2022/11/14 12:49:47;;;;;;;40.83;25.75;;;8.90;99.90;;;;;;6165778;23;20627;-92
2022/11/14 12:52:42;;;;;;;39.35;25.42;;;9.00;99.90;;;;;;6140733;23;20850;-93